METAR Data
IDs: Format: Raw Decoded Include TAF

Data at: 1326 UTC 11 Dec 2018

KGLS 111252Z 04003KT 10SM CLR 06/05 A3044 RMK AO2 SLP307 T00610050
KGLS 111152Z 01004KT 10SM CLR 08/06 A3043 RMK AO2 SLP305 T00780056 10100 20067 53005
KGLS 111052Z AUTO 01004KT 10SM CLR 08/06 A3041 RMK AO2 SLP297 T00830056
KGLS 110952Z AUTO 03004KT 10SM CLR 08/04 A3041 RMK AO2 SLP297 T00780044
KGLS 110852Z AUTO 01004KT 10SM CLR 09/05 A3042 RMK AO2 SLP300 T00890050 50002
KGLS 110752Z AUTO 00000KT 10SM CLR 07/06 A3042 RMK AO2 SLP301 T00720061
KGLS 110652Z AUTO 00000KT 10SM CLR 09/06 A3041 RMK AO2 SLP298 T00890056
KGLS 110552Z AUTO 00000KT 10SM CLR 08/04 A3041 RMK AO2 SLP298 T00830044 10122 20078 401440067 53001
KGLS 110452Z AUTO 04003KT 10SM CLR 09/06 A3041 RMK AO2 SLP298 T00890061
KGLS 110352Z AUTO 00000KT 10SM CLR 10/06 A3041 RMK AO2 SLP296 T01000061
KGLS 110252Z AUTO 33004KT 10SM CLR 11/05 A3041 RMK AO2 SLP297 T01060050 51012
KGLS 110152Z AUTO 32006KT 10SM CLR 11/04 A3040 RMK AO2 SLP295 T01110044
KGLS 110052Z AUTO 34005KT 10SM CLR 11/05 A3039 RMK AO2 SLP290 T01110050
KGLS 102352Z AUTO 35003KT 10SM CLR 12/06 A3037 RMK AO2 SLP285 T01220056 10144 20117 53009
KGLS 102252Z 36006KT 10SM CLR 13/04 A3036 RMK AO2 SLP281 T01330044
KGLS 102152Z 02006KT 10SM CLR 14/04 A3036 RMK AO2 SLP279 T01390039
KGLS 102052Z 02003KT 10SM CLR 14/03 A3035 RMK AO2 SLP276 T01390028 56017
KGLS 101952Z 02005KT 10SM CLR 13/03 A3035 RMK AO2 SLP278 T01330028
KGLS 101852Z 36007KT 10SM CLR 13/03 A3037 RMK AO2 SLP284 T01280028
KGLS 101752Z 01007KT 10SM CLR 12/02 A3040 RMK AO2 SLP292 T01220017 10122 20067 58005
KGLS 101652Z 35008KT 10SM CLR 11/01 A3041 RMK AO2 SLP298 T01110006
KGLS 101552Z 35011KT 10SM CLR 11/03 A3042 RMK AO2 SLP300 T01060028
KGLS 101452Z 34009KT 10SM CLR 09/05 A3041 RMK AO2 SLP297 T00940050 51020
KGLS 101352Z 30005KT 9SM CLR 07/06 A3039 RMK AO2 SLP291 T00720061
KGLS 101252Z 31005KT 10SM CLR 07/06 A3037 RMK AO2 SLP284 T00670056
KGLS 101152Z 31006KT 9SM CLR 07/06 A3035 RMK AO2 SLP277 T00670056 10094 20067 53001
KGLS 101052Z AUTO 31008KT 10SM CLR 07/06 A3033 RMK AO2 SLP271 T00720056
KGLS 100952Z AUTO 31009KT 10SM CLR 08/06 A3034 RMK AO2 SLP273 T00780056
KGLS 100852Z AUTO 31008KT 10SM CLR 08/06 A3035 RMK AO2 SLP276 T00830056 56006
KGLS 100752Z AUTO 31005KT 10SM FEW017 08/06 A3035 RMK AO2 SLP277 T00830061
KGLS 100652Z AUTO 35007KT 10SM FEW030 09/06 A3035 RMK AO2 SLP276 T00890061
KGLS 100632Z AUTO 35009KT 10SM SCT023 OVC030 09/06 A3035 RMK AO2 T00890061
KGLS 100552Z AUTO 36010KT 10SM OVC024 09/06 A3037 RMK AO2 SLP282 T00940056 10094 20094 401110072 51010
KGLS 100452Z AUTO 35011KT 10SM OVC021 09/06 A3036 RMK AO2 SLP280 T00940061
KGLS 100352Z AUTO 34015KT 10SM OVC025 09/06 A3035 RMK AO2 SLP276 T00940061
KGLS 100252Z AUTO 35015G21KT 10SM OVC025 09/06 A3034 RMK AO2 SLP272 T00940056 53015
KGLS 100152Z AUTO 35016KT 10SM OVC021 09/06 A3032 RMK AO2 SLP267 T00940056